Time;durP1;ratioP1;P1;durP2;ratioP2;P2;SDS_P1;SDS_P2;PMS_P1;PMS_P2;Temp;Humidity;BMP_temperature;BMP_pressure;BME280_temperature;BME280_humidity;BME280_pressure;Samples;Min_cycle;Max_cycle;Signal;HPM_P1;HPM_P2
2023/05/06 00:01:48;;;;;;;20.05;13.38;;;;;;;12.97;100.00;101676.78;5026579;28;20403;-59
2023/05/06 00:04:14;;;;;;;18.60;13.02;;;;;;;12.95;100.00;101673.34;5025382;28;20109;-58
2023/05/06 00:06:40;;;;;;;22.00;14.15;;;;;;;12.92;100.00;101668.13;5033139;28;20450;-60
2023/05/06 00:09:05;;;;;;;22.25;13.60;;;;;;;12.92;100.00;101672.56;5025762;28;20032;-57
2023/05/06 00:11:31;;;;;;;20.60;13.60;;;;;;;12.92;100.00;101677.84;5026553;28;20459;-59
2023/05/06 00:13:56;;;;;;;18.63;13.10;;;;;;;12.93;100.00;101676.91;5027521;28;20115;-59
2023/05/06 00:16:22;;;;;;;19.48;13.98;;;;;;;12.97;100.00;101676.78;5026572;28;20105;-58
2023/05/06 00:18:47;;;;;;;19.13;13.18;;;;;;;12.99;100.00;101672.31;5026872;28;20025;-58
2023/05/06 00:21:12;;;;;;;24.58;14.18;;;;;;;13.16;100.00;101678.00;5027212;28;20108;-59
2023/05/06 00:23:37;;;;;;;19.73;13.30;;;;;;;13.20;100.00;101680.50;5027195;28;20065;-57
2023/05/06 00:26:03;;;;;;;21.50;14.35;;;;;;;13.24;100.00;101683.91;5031440;28;20120;-59
2023/05/06 00:28:28;;;;;;;22.38;14.35;;;;;;;13.26;100.00;101663.56;5029615;28;20029;-59
2023/05/06 00:30:54;;;;;;;25.15;14.15;;;;;;;13.29;100.00;101663.47;5030577;28;20053;-58
2023/05/06 00:33:19;;;;;;;19.67;14.25;;;;;;;13.27;100.00;101659.97;5029910;28;20033;-58
2023/05/06 00:35:44;;;;;;;20.25;13.80;;;;;;;13.24;100.00;101654.78;5030277;28;20508;-59
2023/05/06 00:38:12;;;;;;;20.40;13.13;;;;;;;13.24;100.00;101657.44;5030085;28;20519;-58
2023/05/06 00:40:38;;;;;;;21.25;12.75;;;;;;;13.23;100.00;101658.34;5030388;28;20436;-58
2023/05/06 00:43:03;;;;;;;23.92;13.15;;;;;;;13.24;100.00;101655.66;5030989;28;20029;-58
2023/05/06 00:45:29;;;;;;;24.17;14.20;;;;;;;13.28;100.00;101651.16;5030456;28;20017;-59
2023/05/06 00:47:55;;;;;;;19.30;13.77;;;;;;;13.30;100.00;101651.94;5030802;28;20033;-59
2023/05/06 00:50:21;;;;;;;19.30;12.90;;;;;;;13.37;100.00;101656.13;5029449;28;20029;-59
2023/05/06 00:52:47;;;;;;;19.40;13.30;;;;;;;13.40;100.00;101656.03;5029806;28;20071;-60
2023/05/06 00:55:13;;;;;;;18.17;13.27;;;;;;;13.46;100.00;101648.81;5028631;28;20419;-59
2023/05/06 00:57:39;;;;;;;17.95;13.70;;;;;;;13.49;100.00;101652.25;5030729;28;20109;-59
2023/05/06 01:00:06;;;;;;;17.90;13.23;;;;;;;13.45;100.00;101642.63;5029167;28;20034;-59
2023/05/06 01:02:31;;;;;;;18.30;12.85;;;;;;;13.44;100.00;101638.28;5028750;28;20030;-60
2023/05/06 01:04:57;;;;;;;17.98;12.60;;;;;;;13.32;100.00;101636.91;5031244;28;20032;-58
2023/05/06 01:07:30;;;;;;;19.02;12.82;;;;;;;13.28;100.00;101635.28;5027199;28;20049;-59
2023/05/06 01:10:17;;;;;;;18.25;11.63;;;;;;;13.20;100.00;101632.88;5045972;28;20104;-59
2023/05/06 01:12:50;;;;;;;18.77;13.65;;;;;;;13.18;100.00;101644.44;5078236;22;20497;-59
2023/05/06 01:15:35;;;;;;;19.40;13.32;;;;;;;13.15;100.00;101640.06;5009496;28;20026;-59
2023/05/06 01:18:06;;;;;;;22.98;13.77;;;;;;;13.13;100.00;101637.47;5009446;28;20113;-59
2023/05/06 01:20:32;;;;;;;15.88;13.18;;;;;;;13.14;100.00;101638.34;4989871;28;20380;-59
2023/05/06 01:22:57;;;;;;;24.13;15.15;;;;;;;13.06;100.00;101641.22;4989758;28;20597;-59
2023/05/06 01:25:22;;;;;;;23.50;14.23;;;;;;;13.01;100.00;101649.31;4990598;28;20034;-59
2023/05/06 01:27:48;;;;;;;19.70;13.80;;;;;;;13.02;100.00;101648.41;4991076;28;20027;-59
2023/05/06 01:30:16;;;;;;;19.83;14.68;;;;;;;13.02;100.00;101650.19;4990424;28;20030;-58
2023/05/06 01:32:47;;;;;;;20.13;14.82;;;;;;;13.07;100.00;101645.63;4990363;28;20037;-58
2023/05/06 01:35:23;;;;;;;19.50;14.25;;;;;;;12.98;100.00;101645.91;4990170;28;20058;-59
2023/05/06 01:37:59;;;;;;;19.75;13.45;;;;;;;12.94;100.00;101653.06;4988990;28;20030;-59
2023/05/06 01:40:26;;;;;;;20.25;14.15;;;;;;;12.84;100.00;101657.78;4970108;28;20031;-61
2023/05/06 01:42:52;;;;;;;19.40;13.50;;;;;;;12.75;100.00;101653.66;4985091;28;20041;-59
2023/05/06 01:45:18;;;;;;;20.58;14.55;;;;;;;12.69;100.00;101658.22;4990551;28;20026;-59
2023/05/06 01:47:45;;;;;;;22.92;15.05;;;;;;;12.64;100.00;101658.38;4988996;28;20087;-59
2023/05/06 01:50:11;;;;;;;24.80;15.32;;;;;;;12.59;100.00;101663.81;4989870;28;20049;-59
2023/05/06 01:52:36;;;;;;;21.48;14.90;;;;;;;12.52;100.00;101664.88;5004615;28;20015;-58
2023/05/06 01:55:01;;;;;;;23.42;14.98;;;;;;;12.48;100.00;101668.53;4990631;28;20069;-59
2023/05/06 01:57:27;;;;;;;22.88;16.38;;;;;;;12.44;100.00;101672.16;4990991;28;20094;-57
2023/05/06 01:59:52;;;;;;;22.98;16.25;;;;;;;12.41;100.00;101667.84;4990109;28;20034;-59
2023/05/06 02:02:18;;;;;;;25.15;17.00;;;;;;;12.41;100.00;101661.69;4990342;28;20637;-58
2023/05/06 02:04:43;;;;;;;24.58;16.00;;;;;;;12.36;100.00;101661.81;4989826;28;20061;-60
2023/05/06 02:07:08;;;;;;;22.70;16.77;;;;;;;12.32;100.00;101670.75;4994227;28;20121;-59
2023/05/06 02:09:34;;;;;;;22.88;15.60;;;;;;;12.27;100.00;101668.22;5009561;28;20079;-59
2023/05/06 02:11:59;;;;;;;28.13;17.77;;;;;;;12.25;100.00;101670.91;5010523;28;20049;-59
2023/05/06 02:14:24;;;;;;;26.13;17.02;;;;;;;12.21;100.00;101673.66;5009925;28;20080;-59
2023/05/06 02:16:50;;;;;;;24.98;17.45;;;;;;;12.16;100.00;101676.44;4993106;28;20092;-57
2023/05/06 02:19:15;;;;;;;26.83;18.75;;;;;;;12.08;100.00;101674.03;4989994;28;20061;-58
2023/05/06 02:21:40;;;;;;;26.13;18.55;;;;;;;12.07;100.00;101674.91;4988721;28;20045;-57
2023/05/06 02:24:06;;;;;;;27.40;19.10;;;;;;;12.01;100.00;101675.03;4989503;28;20010;-59
2023/05/06 02:26:31;;;;;;;27.63;19.17;;;;;;;11.99;100.00;101675.09;4989346;28;20022;-59
2023/05/06 02:28:56;;;;;;;27.63;18.67;;;;;;;11.99;100.00;101671.59;4990554;28;20045;-59
2023/05/06 02:31:22;;;;;;;27.15;18.05;;;;;;;11.96;100.00;101680.47;4989482;28;20031;-59
2023/05/06 02:33:47;;;;;;;31.98;19.55;;;;;;;11.94;100.00;101674.34;4972587;28;20054;-59
2023/05/06 02:36:12;;;;;;;27.40;18.65;;;;;;;11.91;100.00;101678.84;4969612;28;20031;-58
2023/05/06 02:38:38;;;;;;;29.70;19.88;;;;;;;11.86;100.00;101681.63;4969013;28;20031;-59
2023/05/06 02:41:03;;;;;;;31.15;20.02;;;;;;;11.91;100.00;101676.19;4976757;28;20038;-58
2023/05/06 02:43:28;;;;;;;29.08;19.38;;;;;;;11.93;100.00;101679.66;4987969;28;20066;-57
2023/05/06 02:45:54;;;;;;;31.42;20.83;;;;;;;11.91;100.00;101678.84;4988201;28;20026;-58
2023/05/06 02:48:19;;;;;;;31.98;20.80;;;;;;;11.82;100.00;101686.09;4988343;28;20039;-59
2023/05/06 02:50:45;;;;;;;29.20;21.13;;;;;;;11.83;100.00;101679.91;4988422;28;20018;-57
2023/05/06 02:53:12;;;;;;;27.85;19.80;;;;;;;11.80;100.00;101677.34;4987628;28;20026;-60
2023/05/06 02:55:37;;;;;;;30.17;20.02;;;;;;;11.75;100.00;101674.81;4989321;28;20085;-59
2023/05/06 02:58:03;;;;;;;31.05;20.67;;;;;;;11.73;100.00;101670.47;4988293;28;20082;-57
2023/05/06 03:00:28;;;;;;;30.17;19.92;;;;;;;11.68;100.00;101672.38;4989409;28;20022;-59
2023/05/06 03:02:54;;;;;;;32.92;21.40;;;;;;;11.68;100.00;101675.03;4986641;28;20492;-60
2023/05/06 03:05:20;;;;;;;33.42;21.08;;;;;;;11.68;100.00;101675.03;4988741;28;20597;-59
2023/05/06 03:07:45;;;;;;;41.28;23.27;;;;;;;11.73;100.00;101676.66;4991440;28;20539;-56
2023/05/06 03:10:10;;;;;;;32.13;21.50;;;;;;;11.78;100.00;101676.53;5006227;28;20032;-58
2023/05/06 03:12:36;;;;;;;35.30;23.33;;;;;;;11.78;100.00;101671.25;5007515;28;20447;-59
2023/05/06 03:15:01;;;;;;;35.67;21.85;;;;;;;11.79;100.00;101667.69;5007963;28;20053;-58
2023/05/06 03:17:26;;;;;;;32.92;22.00;;;;;;;11.78;100.00;101668.59;5007685;28;20018;-58
2023/05/06 03:19:52;;;;;;;32.90;20.98;;;;;;;11.77;100.00;101664.22;5008625;28;20083;-59
2023/05/06 03:22:17;;;;;;;37.13;22.63;;;;;;;11.71;100.00;101659.13;5007721;28;20041;-56
2023/05/06 03:24:42;;;;;;;38.80;23.10;;;;;;;11.71;100.00;101659.13;4994534;28;20026;-59
2023/05/06 03:27:08;;;;;;;37.08;23.08;;;;;;;11.75;100.00;101658.13;4988604;28;20026;-59
2023/05/06 03:29:33;;;;;;;38.47;23.40;;;;;;;11.75;100.00;101660.75;4988028;28;20096;-58
2023/05/06 03:32:04;;;;;;;38.50;23.70;;;;;;;11.72;100.00;101659.06;4988808;28;20049;-58
2023/05/06 03:34:29;;;;;;;36.55;23.88;;;;;;;11.75;100.00;101666.03;4988405;28;20053;-59
2023/05/06 03:36:56;;;;;;;41.90;24.75;;;;;;;11.75;100.00;101656.31;4988086;28;20051;-56
2023/05/06 03:39:22;;;;;;;39.47;23.33;;;;;;;11.78;100.00;101658.03;4988147;28;20022;-57
2023/05/06 03:41:47;;;;;;;36.58;22.50;;;;;;;11.78;100.00;101665.09;4987845;28;20380;-59
2023/05/06 03:44:12;;;;;;;38.53;23.27;;;;;;;11.78;100.00;101668.59;4987843;28;20029;-58
2023/05/06 03:46:38;;;;;;;40.10;23.92;;;;;;;11.74;100.00;101670.44;4987947;28;20030;-57
2023/05/06 03:49:04;;;;;;;36.55;23.33;;;;;;;11.73;100.00;101667.84;4987755;28;20027;-59
2023/05/06 03:51:30;;;;;;;36.40;22.98;;;;;;;11.73;100.00;101659.91;4987190;28;20532;-58
2023/05/06 03:53:55;;;;;;;36.28;23.00;;;;;;;11.69;100.00;101667.06;4988803;28;20401;-58
2023/05/06 03:56:21;;;;;;;39.92;24.42;;;;;;;11.70;100.00;101666.16;4987701;28;20153;-56
2023/05/06 03:58:47;;;;;;;37.08;22.25;;;;;;;11.76;100.00;101678.31;4987274;28;20084;-58
2023/05/06 04:01:12;;;;;;;38.20;23.83;;;;;;;11.74;100.00;101669.59;4987712;28;20085;-59
2023/05/06 04:03:38;;;;;;;33.92;22.13;;;;;;;11.74;100.00;101666.97;4987090;28;20034;-59
2023/05/06 04:06:04;;;;;;;35.67;22.50;;;;;;;11.75;100.00;101671.31;4996110;28;20813;-59
2023/05/06 04:08:30;;;;;;;36.10;23.35;;;;;;;11.75;100.00;101664.25;5006205;28;20124;-62
2023/05/06 04:10:56;;;;;;;42.78;24.00;;;;;;;11.81;100.00;101673.81;4999606;28;20057;-57
2023/05/06 04:13:21;;;;;;;37.65;23.63;;;;;;;11.83;100.00;101669.34;4987001;28;20086;-56
2023/05/06 04:15:47;;;;;;;39.92;23.98;;;;;;;11.90;100.00;101669.19;4987318;28;20045;-60
2023/05/06 04:18:17;;;;;;;42.25;25.02;;;;;;;11.93;100.00;101677.03;4987193;28;20480;-58
2023/05/06 04:20:45;;;;;;;36.75;22.77;;;;;;;11.97;100.00;101671.63;4971830;28;20522;-57
2023/05/06 04:23:10;;;;;;;41.08;24.55;;;;;;;12.10;100.00;101677.47;4966787;28;20110;-57
2023/05/06 04:25:36;;;;;;;41.22;24.58;;;;;;;12.15;100.00;101681.75;4980771;28;20169;-58
2023/05/06 04:28:02;;;;;;;33.53;23.67;;;;;;;12.18;100.00;101685.19;4987732;28;20034;-57
2023/05/06 04:30:27;;;;;;;38.15;23.02;;;;;;;12.20;100.00;101687.81;4980946;28;20022;-59
2023/05/06 04:32:52;;;;;;;34.97;23.02;;;;;;;12.30;100.00;101688.41;4976481;28;20022;-56
2023/05/06 04:35:18;;;;;;;37.78;22.85;;;;;;;12.33;100.00;101691.84;4987886;28;20033;-58
2023/05/06 04:37:43;;;;;;;36.50;23.55;;;;;;;12.35;100.00;101695.31;4986339;28;20022;-58
2023/05/06 04:40:10;;;;;;;35.72;23.00;;;;;;;12.42;100.00;101692.47;4987503;28;20100;-58
2023/05/06 04:42:36;;;;;;;33.88;22.10;;;;;;;12.52;100.00;101688.66;4979279;28;20090;-57
2023/05/06 04:45:02;;;;;;;35.95;22.65;;;;;;;12.45;100.00;101689.75;4982536;28;20398;-59
2023/05/06 04:47:28;;;;;;;39.03;22.55;;;;;;;12.48;100.00;101697.59;4987060;28;20030;-58
2023/05/06 04:49:53;;;;;;;37.40;22.63;;;;;;;12.47;100.00;101698.53;4987528;28;20073;-60
2023/05/06 04:52:18;;;;;;;32.38;21.50;;;;;;;12.48;100.00;101702.88;4991464;28;20026;-58
2023/05/06 04:54:44;;;;;;;34.63;22.50;;;;;;;12.45;100.00;101702.97;4991690;28;20031;-59
2023/05/06 04:57:10;;;;;;;31.33;22.30;;;;;;;12.43;100.00;101700.38;4980240;28;20503;-55
2023/05/06 04:59:35;;;;;;;30.92;21.77;;;;;;;12.43;100.00;101704.81;4987513;28;20636;-58
2023/05/06 05:02:00;;;;;;;34.67;22.50;;;;;;;12.43;100.00;101704.81;4986707;28;20080;-59
2023/05/06 05:04:26;;;;;;;35.25;22.73;;;;;;;12.48;100.00;101698.47;4987204;28;20042;-57
2023/05/06 05:06:51;;;;;;;31.90;22.13;;;;;;;12.49;100.00;101709.91;4986705;28;20030;-58
2023/05/06 05:09:17;;;;;;;34.47;22.55;;;;;;;12.50;100.00;101706.38;4987974;28;20066;-60
2023/05/06 05:11:42;;;;;;;32.00;21.88;;;;;;;12.57;100.00;101712.34;4990570;28;20100;-58
2023/05/06 05:14:08;;;;;;;33.63;21.70;;;;;;;12.58;100.00;101712.28;4989273;28;20409;-59
2023/05/06 05:16:33;;;;;;;36.83;23.52;;;;;;;12.61;100.00;101721.91;4989284;28;20018;-58
2023/05/06 05:18:58;;;;;;;35.13;23.02;;;;;;;12.67;100.00;101718.25;4990193;28;20034;-58
2023/05/06 05:21:23;;;;;;;33.03;21.85;;;;;;;12.73;100.00;101712.75;4989532;28;20511;-58
2023/05/06 05:23:49;;;;;;;33.33;22.73;;;;;;;12.79;100.00;101717.03;4989871;28;20039;-57
2023/05/06 05:26:14;;;;;;;29.20;20.65;;;;;;;12.89;100.00;101710.53;4990293;28;20022;-58
2023/05/06 05:28:39;;;;;;;32.95;22.40;;;;;;;13.02;100.00;101716.31;4990399;28;20018;-58
2023/05/06 05:31:05;;;;;;;30.90;21.23;;;;;;;13.14;100.00;101712.44;4988879;28;20057;-59
2023/05/06 05:33:30;;;;;;;34.08;22.52;;;;;;;13.25;100.00;101714.75;4971316;28;20461;-60
2023/05/06 05:35:56;;;;;;;32.33;21.92;;;;;;;13.29;100.00;101710.22;4970192;28;20036;-58
2023/05/06 05:38:22;;;;;;;32.67;22.50;;;;;;;13.35;100.00;101710.91;4970316;28;20035;-60
2023/05/06 05:40:47;;;;;;;31.45;22.08;;;;;;;13.37;100.00;101714.34;4971530;28;20393;-56
2023/05/06 05:43:13;;;;;;;31.10;20.75;;;;;;;13.46;100.00;101720.28;4971981;28;20473;-55
2023/05/06 05:45:38;;;;;;;32.38;21.60;;;;;;;13.51;100.00;101711.31;4970585;28;20066;-58
2023/05/06 05:48:03;;;;;;;27.42;20.83;;;;;;;13.56;100.00;101711.16;4970955;28;20062;-59
2023/05/06 05:50:29;;;;;;;25.85;18.92;;;;;;;13.66;100.00;101711.72;4984490;28;20070;-58
2023/05/06 05:52:54;;;;;;;29.55;20.65;;;;;;;13.68;100.00;101709.91;4989010;28;20073;-59
2023/05/06 05:55:20;;;;;;;26.77;20.02;;;;;;;13.81;100.00;101718.28;4989224;28;20467;-59
2023/05/06 05:57:45;;;;;;;27.92;19.35;;;;;;;13.90;100.00;101720.63;4990353;28;20057;-60
2023/05/06 06:00:11;;;;;;;25.58;19.17;;;;;;;14.20;100.00;101718.75;4989503;28;20018;-58
2023/05/06 06:02:36;;;;;;;25.67;19.20;;;;;;;14.53;100.00;101721.13;4989525;28;20040;-57
2023/05/06 06:05:02;;;;;;;24.67;17.55;;;;;;;14.78;100.00;101722.91;4989837;28;20054;-58
2023/05/06 06:07:27;;;;;;;24.77;18.30;;;;;;;14.91;100.00;101726.81;4977672;28;20119;-59
2023/05/06 06:09:53;;;;;;;26.98;16.63;;;;;;;15.00;100.00;101719.44;4969414;28;20478;-54
2023/05/06 06:12:18;;;;;;;22.55;16.10;;;;;;;15.00;100.00;101716.78;4968738;28;20047;-57
2023/05/06 06:14:46;;;;;;;22.52;16.88;;;;;;;15.05;100.00;101717.44;4969542;28;20039;-56
2023/05/06 06:17:13;;;;;;;22.55;17.40;;;;;;;14.99;100.00;101715.06;4977430;28;20022;-57
2023/05/06 06:19:38;;;;;;;26.92;17.00;;;;;;;15.04;100.00;101713.06;4981715;28;20030;-57
2023/05/06 06:22:04;;;;;;;22.52;17.50;;;;;;;14.96;100.00;101716.00;4985101;28;20043;-59
2023/05/06 06:24:29;;;;;;;21.63;16.58;;;;;;;15.02;100.00;101718.44;4977604;28;20019;-60
2023/05/06 06:26:54;;;;;;;19.90;16.98;;;;;;;15.13;100.00;101718.03;4979238;28;20040;-57
2023/05/06 06:29:20;;;;;;;24.95;16.85;;;;;;;15.28;100.00;101719.22;4988147;28;20030;-58
2023/05/06 06:31:45;;;;;;;19.70;15.95;;;;;;;15.40;100.00;101725.81;4987032;28;20029;-57
2023/05/06 06:34:11;;;;;;;23.85;17.85;;;;;;;15.56;100.00;101717.22;4988332;28;20030;-57
2023/05/06 06:36:39;;;;;;;24.80;17.50;;;;;;;15.63;100.00;101716.03;4987655;28;20030;-58
2023/05/06 06:39:04;;;;;;;22.15;16.25;;;;;;;15.73;100.00;101713.88;4980858;28;20105;-57
2023/05/06 06:41:29;;;;;;;24.63;17.67;;;;;;;15.90;100.00;101725.59;4980742;28;20533;-57
2023/05/06 06:43:55;;;;;;;22.50;17.38;;;;;;;15.92;100.00;101729.91;4978712;28;20057;-57
2023/05/06 06:46:20;;;;;;;25.67;17.85;;;;;;;15.99;100.00;101735.00;4973157;28;20118;-57
2023/05/06 06:48:46;;;;;;;24.10;17.20;;;;;;;16.03;100.00;101732.16;4977575;28;20117;-57
2023/05/06 06:51:12;;;;;;;26.20;17.85;;;;;;;16.23;100.00;101734.88;4974023;28;20050;-60
2023/05/06 06:53:37;;;;;;;29.73;17.65;;;;;;;16.16;100.00;101729.81;4977208;28;20042;-57
2023/05/06 06:56:02;;;;;;;28.30;18.52;;;;;;;16.12;100.00;101738.84;4977314;28;20019;-56
2023/05/06 06:58:28;;;;;;;27.33;17.67;;;;;;;16.36;100.00;101733.41;4971704;28;20093;-59
2023/05/06 07:00:53;;;;;;;26.70;17.90;;;;;;;16.48;100.00;101732.00;4967534;28;20495;-58
2023/05/06 07:03:19;;;;;;;28.48;18.42;;;;;;;16.51;100.00;101739.84;4973092;28;20029;-57
2023/05/06 07:05:44;;;;;;;25.23;18.55;;;;;;;16.57;100.00;101746.66;4976517;28;20035;-58
2023/05/06 07:08:10;;;;;;;24.80;18.33;;;;;;;16.57;100.00;101743.13;4979892;28;20026;-59
2023/05/06 07:10:35;;;;;;;28.20;19.63;;;;;;;16.56;100.00;101750.28;4986105;28;20461;-57
2023/05/06 07:13:01;;;;;;;25.20;18.05;;;;;;;16.60;100.00;101745.66;4987037;28;20050;-60
2023/05/06 07:15:26;;;;;;;30.50;18.73;;;;;;;16.64;100.00;101744.59;4989684;28;20033;-59
2023/05/06 07:17:51;;;;;;;23.05;17.98;;;;;;;16.62;100.00;101751.78;4987798;28;20019;-56
2023/05/06 07:20:17;;;;;;;29.20;18.38;;;;;;;16.74;100.00;101751.22;4983985;28;20014;-59
2023/05/06 07:22:44;;;;;;;28.02;17.95;;;;;;;16.84;100.00;101748.13;4977661;28;20046;-57
2023/05/06 07:25:09;;;;;;;28.65;18.00;;;;;;;16.84;100.00;101753.47;4992023;28;20477;-57
2023/05/06 07:27:35;;;;;;;26.02;18.23;;;;;;;16.84;100.00;101753.47;4977586;28;20065;-59
2023/05/06 07:30:00;;;;;;;29.23;17.77;;;;;;;16.95;100.00;101756.50;4977600;28;20113;-60
2023/05/06 07:32:25;;;;;;;27.65;16.88;;;;;;;16.98;100.00;101756.34;4978740;28;20023;-59
2023/05/06 07:34:51;;;;;;;24.17;16.17;;;;;;;17.11;100.00;101756.69;4977798;28;20030;-59
2023/05/06 07:37:17;;;;;;;31.38;17.15;;;;;;;17.11;100.00;101764.66;4980657;28;20473;-59
2023/05/06 07:39:42;;;;;;;24.65;16.15;;;;;;;17.20;100.00;101760.69;4983333;28;20319;-57
2023/05/06 07:42:11;;;;;;;23.50;14.73;;;;;;;17.34;100.00;101761.84;4972787;28;20022;-57
2023/05/06 07:44:37;;;;;;;23.88;13.38;;;;;;;17.45;100.00;101758.69;4979200;28;20019;-61
2023/05/06 07:47:02;;;;;;;26.00;15.43;;;;;;;17.45;100.00;101758.69;4977996;28;20121;-57
2023/05/06 07:49:29;;;;;;;21.73;13.77;;;;;;;17.41;100.00;101756.16;4969008;28;20027;-59
2023/05/06 07:51:56;;;;;;;22.52;13.98;;;;;;;17.71;100.00;101759.19;4968508;28;20126;-59
2023/05/06 07:54:21;;;;;;;23.52;14.50;;;;;;;17.64;100.00;101764.81;4968771;28;20030;-57
2023/05/06 07:56:46;;;;;;;28.25;15.18;;;;;;;17.71;100.00;101762.72;4968676;28;20162;-58
2023/05/06 07:59:12;;;;;;;22.13;15.27;;;;;;;17.68;100.00;101762.88;4968753;28;20114;-60
2023/05/06 08:01:37;;;;;;;24.92;14.52;;;;;;;17.83;100.00;101761.25;4971311;28;20118;-58
2023/05/06 08:04:02;;;;;;;19.80;13.70;;;;;;;18.07;100.00;101766.28;4979550;28;20162;-57
2023/05/06 08:06:28;;;;;;;26.67;13.93;;;;;;;18.00;100.00;101759.53;4984631;28;20397;-59
2023/05/06 08:08:53;;;;;;;21.30;12.77;;;;;;;18.04;100.00;101769.09;4986959;28;20026;-59
2023/05/06 08:11:18;;;;;;;21.65;12.85;;;;;;;18.27;100.00;101767.94;4987410;28;20392;-60
2023/05/06 08:13:44;;;;;;;24.13;11.68;;;;;;;18.21;100.00;101765.56;4988122;28;20555;-59
2023/05/06 08:16:10;;;;;;;18.00;8.32;;;;;;;18.23;100.00;101765.50;4986390;28;20440;-60
2023/05/06 08:18:35;;;;;;;18.38;7.82;;;;;;;18.28;100.00;101775.00;4986952;28;20105;-59
2023/05/06 08:21:01;;;;;;;16.23;5.93;;;;;;;18.65;100.00;101772.19;4986292;28;20362;-60
2023/05/06 08:23:26;;;;;;;20.10;8.98;;;;;;;18.90;100.00;101773.53;4987228;28;20030;-60
2023/05/06 08:25:51;;;;;;;23.00;11.95;;;;;;;18.97;100.00;101765.19;4983212;28;20474;-58
2023/05/06 08:28:17;;;;;;;21.02;11.40;;;;;;;19.28;100.00;101767.06;4967993;28;20708;-58
2023/05/06 08:30:44;;;;;;;21.77;12.43;;;;;;;19.09;100.00;101769.03;4992245;28;20120;-58
2023/05/06 08:33:10;;;;;;;23.40;12.55;;;;;;;18.86;100.00;101763.97;4990342;28;20014;-58
2023/05/06 08:35:35;;;;;;;23.67;11.93;;;;;;;19.01;100.00;101761.41;4994908;28;20045;-57
2023/05/06 08:38:00;;;;;;;23.20;12.80;;;;;;;18.84;100.00;101765.00;4990032;28;20061;-60
2023/05/06 08:40:26;;;;;;;19.63;11.32;;;;;;;18.60;100.00;101768.91;4988348;28;20046;-60
2023/05/06 08:42:54;;;;;;;22.15;10.60;;;;;;;18.78;100.00;101766.22;4986025;28;20042;-58
2023/05/06 08:45:19;;;;;;;17.08;10.63;;;;;;;18.80;100.00;101772.31;4993801;28;20014;-58
2023/05/06 08:47:47;;;;;;;20.33;11.00;;;;;;;18.72;100.00;101762.03;5001072;28;20535;-57
2023/05/06 08:50:12;;;;;;;19.90;12.13;;;;;;;18.66;100.00;101763.25;4989214;28;20022;-60
2023/05/06 08:52:38;;;;;;;21.30;11.43;;;;;;;18.77;100.00;101761.78;4990763;28;20096;-58
2023/05/06 08:55:05;;;;;;;21.92;10.40;;;;;;;18.86;100.00;101758.63;4991404;28;20465;-60
2023/05/06 08:57:31;;;;;;;15.60;8.68;;;;;;;19.12;100.00;101759.03;4991108;28;20034;-59
2023/05/06 08:59:57;;;;;;;19.90;9.95;;;;;;;19.10;100.00;101752.91;4991089;28;20168;-59
2023/05/06 09:02:23;;;;;;;19.88;9.15;;;;;;;19.00;100.00;101752.53;4989745;28;20117;-60
2023/05/06 09:04:49;;;;;;;17.05;7.90;;;;;;;18.89;100.00;101755.78;4988867;28;20023;-59
2023/05/06 09:07:14;;;;;;;17.75;8.85;;;;;;;19.01;100.00;101761.41;4988141;28;20041;-59
2023/05/06 09:09:39;;;;;;;19.40;8.88;;;;;;;19.04;100.00;101755.88;4990820;28;20031;-61
2023/05/06 09:12:12;;;;;;;20.75;9.25;;;;;;;19.24;100.00;101759.28;4990246;28;20050;-60
2023/05/06 09:14:38;;;;;;;26.60;11.23;;;;;;;19.43;100.00;101754.63;4996480;28;20423;-59
2023/05/06 09:17:03;;;;;;;23.73;10.82;;;;;;;19.55;100.00;101752.19;4996683;28;20026;-61
2023/05/06 09:19:28;;;;;;;20.67;9.75;;;;;;;19.55;100.00;101752.19;4989498;28;20066;-62
2023/05/06 09:21:53;;;;;;;22.05;9.00;;;;;;;19.70;100.00;101754.00;4989447;28;20512;-60
2023/05/06 09:24:19;;;;;;;25.10;9.40;;;;;;;19.86;100.00;101746.88;4989526;28;20034;-61
2023/05/06 09:26:45;;;;;;;22.08;10.23;;;;;;;19.78;100.00;101750.84;4989893;28;20018;-62
2023/05/06 09:29:11;;;;;;;16.90;9.07;;;;;;;19.91;100.00;101756.34;4990482;28;20468;-59
2023/05/06 09:31:46;;;;;;;17.55;9.52;;;;;;;19.83;100.00;101759.47;4989656;28;20465;-60
2023/05/06 09:34:13;;;;;;;19.00;10.60;;;;;;;20.15;100.00;101758.53;4988986;28;20059;-59
2023/05/06 09:36:38;;;;;;;16.10;7.25;;;;;;;20.30;100.00;101755.88;4989172;28;20041;-59
2023/05/06 09:39:04;;;;;;;12.02;6.40;;;;;;;20.56;99.75;101748.06;4990857;28;20022;-60
2023/05/06 09:41:29;;;;;;;15.10;6.70;;;;;;;20.73;98.18;101741.66;4990397;28;20022;-59
2023/05/06 09:43:55;;;;;;;17.00;7.10;;;;;;;20.69;94.46;101741.00;4991080;28;20026;-59
2023/05/06 09:46:22;;;;;;;15.00;6.20;;;;;;;20.71;95.02;101743.59;4989198;28;20065;-64
2023/05/06 09:48:50;;;;;;;15.50;6.07;;;;;;;21.02;94.88;101735.44;4989874;28;20080;-61
2023/05/06 09:51:15;;;;;;;15.60;6.72;;;;;;;21.05;96.18;101737.91;4988265;28;20045;-60
2023/05/06 09:53:43;;;;;;;13.73;6.30;;;;;;;20.84;95.45;101743.66;4990652;28;20129;-60
2023/05/06 09:56:08;;;;;;;15.88;6.13;;;;;;;20.77;94.98;101736.97;4988279;28;20026;-60
2023/05/06 09:58:34;;;;;;;11.07;5.88;;;;;;;20.99;96.58;101736.50;4989920;28;20377;-60
2023/05/06 10:01:02;;;;;;;11.38;6.22;;;;;;;21.02;96.40;101738.97;4991101;28;20019;-59
2023/05/06 10:03:28;;;;;;;16.07;7.27;;;;;;;21.34;95.86;101740.50;4984128;28;20097;-60
2023/05/06 10:05:56;;;;;;;13.30;6.82;;;;;;;21.25;93.57;101735.75;4984943;28;20082;-58
2023/05/06 10:08:22;;;;;;;17.85;7.35;;;;;;;21.74;93.82;101731.63;4988921;28;20034;-56
2023/05/06 10:10:48;;;;;;;16.77;7.30;;;;;;;21.58;93.14;101727.28;4990280;28;20068;-60
2023/05/06 10:13:13;;;;;;;14.20;7.43;;;;;;;21.65;95.96;101732.25;4982968;28;20081;-61
2023/05/06 10:15:39;;;;;;;16.77;7.10;;;;;;;21.75;94.50;101727.13;4985096;28;20030;-59
2023/05/06 10:18:06;;;;;;;15.15;7.05;;;;;;;21.93;93.25;101725.03;4974750;28;20022;-60
2023/05/06 10:20:33;;;;;;;13.15;6.75;;;;;;;21.95;92.96;101726.66;4988679;28;20049;-61
2023/05/06 10:23:25;;;;;;;17.52;6.80;;;;;;;21.86;91.46;101732.66;4989074;28;20542;-60
2023/05/06 10:25:53;;;;;;;17.80;7.35;;;;;;;21.74;92.82;101730.78;4989681;28;20034;-61
2023/05/06 10:28:20;;;;;;;17.27;8.23;;;;;;;21.62;92.01;101722.59;4988556;28;20424;-61
2023/05/06 10:30:47;;;;;;;15.50;8.43;;;;;;;21.58;93.78;101721.06;4990909;28;20368;-61
2023/05/06 10:33:13;;;;;;;16.90;8.38;;;;;;;21.57;93.56;101719.34;4987842;28;20026;-60
2023/05/06 10:36:14;;;;;;;16.98;8.52;;;;;;;21.50;94.11;101712.69;4988447;28;20046;-61
2023/05/06 10:38:41;;;;;;;15.68;8.65;;;;;;;21.63;95.06;101710.91;4983321;28;20035;-59
2023/05/06 10:41:07;;;;;;;14.23;8.57;;;;;;;22.02;93.63;101716.38;4985315;28;20034;-61
2023/05/06 10:43:34;;;;;;;16.42;9.07;;;;;;;22.00;93.21;101714.75;4986878;28;20026;-60
2023/05/06 10:46:00;;;;;;;17.08;9.25;;;;;;;21.76;92.16;101707.44;4989240;28;20030;-60
2023/05/06 10:48:26;;;;;;;15.45;9.82;;;;;;;21.80;91.45;101708.94;4992630;28;20022;-60
2023/05/06 10:51:15;;;;;;;15.00;10.15;;;;;;;22.09;93.61;101709.59;4998112;28;20048;-61
2023/05/06 10:54:01;;;;;;;;;;;;;;;22.19;89.66;101709.81;4990258;28;20082;-58
2023/05/06 10:56:26;;;;;;;14.02;9.50;;;;;;;22.05;91.82;101712.59;4989287;28;19909;-60
2023/05/06 10:58:53;;;;;;;14.70;9.32;;;;;;;22.17;91.74;101702.84;4989824;28;20037;-60
2023/05/06 11:01:25;;;;;;;16.67;9.60;;;;;;;22.37;91.24;101701.44;4975018;28;20042;-61